DKFIS LSGK-LFLJ
Flight info
| Callsign | DKFIS |
|---|---|
| Flight time | 0h -28m |
| Altitude | 16000 |
| Route | DCT VALOR DCT |
| Aircraft | DA42/L-SBDGRY/S |
Departure
| Time | 2026-05-07 18:24 |
|---|---|
| Airport | Saanen Airfield (LSGK) |
Arrival
| Time | 2026-05-07 17:56 |
|---|---|
| Airport | Courchevel Altiport (LFLJ) |
| Time | Latitude | Longitude | Altitude | Speed | Heading |
|---|---|---|---|---|---|
| 2026-05-07 17:56 | 45.39596 | 6.63404 | 6593 ft | 0 kts | 135° |
| 2026-05-07 18:00 | 45.39594 | 6.63405 | 6593 ft | 2 kts | 179° |
| 2026-05-07 18:00 | 45.39605 | 6.63380 | 6594 ft | 6 kts | 320° |
| 2026-05-07 18:00 | 45.39652 | 6.63369 | 6598 ft | 5 kts | 17° |
| 2026-05-07 18:00 | 45.39653 | 6.63369 | 6598 ft | 0 kts | 18° |
| 2026-05-07 18:03 | 45.39867 | 6.63650 | 6416 ft | 89 kts | 46° |
| 2026-05-07 18:04 | 45.40364 | 6.64312 | 6607 ft | 100 kts | 40° |
| 2026-05-07 18:04 | 45.40874 | 6.65005 | 6967 ft | 102 kts | 44° |
| 2026-05-07 18:04 | 45.41378 | 6.65735 | 7338 ft | 103 kts | 43° |
| 2026-05-07 18:04 | 45.41669 | 6.66620 | 7708 ft | 101 kts | 87° |
| 2026-05-07 18:05 | 45.41846 | 6.67578 | 8087 ft | 101 kts | 59° |
| 2026-05-07 18:05 | 45.42223 | 6.68420 | 8457 ft | 100 kts | 58° |
| 2026-05-07 18:05 | 45.42607 | 6.69235 | 8841 ft | 98 kts | 58° |
| 2026-05-07 18:05 | 45.42993 | 6.70033 | 9226 ft | 98 kts | 58° |
| 2026-05-07 18:06 | 45.43380 | 6.70817 | 9614 ft | 96 kts | 58° |
| 2026-05-07 18:06 | 45.43759 | 6.71583 | 9999 ft | 94 kts | 58° |
| 2026-05-07 18:06 | 45.44130 | 6.72320 | 10337 ft | 89 kts | 58° |
| 2026-05-07 18:06 | 45.44526 | 6.73124 | 10471 ft | 111 kts | 58° |
| 2026-05-07 18:07 | 45.45007 | 6.74105 | 10619 ft | 131 kts | 57° |
| 2026-05-07 18:07 | 45.45566 | 6.75229 | 10743 ft | 145 kts | 57° |
| 2026-05-07 18:07 | 45.46182 | 6.76455 | 10878 ft | 159 kts | 56° |
| 2026-05-07 18:07 | 45.46847 | 6.77773 | 11053 ft | 166 kts | 56° |
| 2026-05-07 18:08 | 45.47517 | 6.79109 | 11298 ft | 165 kts | 56° |
| 2026-05-07 18:08 | 45.48183 | 6.80443 | 11558 ft | 166 kts | 56° |
| 2026-05-07 18:08 | 45.48716 | 6.81870 | 11795 ft | 162 kts | 81° |
| 2026-05-07 18:08 | 45.48845 | 6.83461 | 12062 ft | 160 kts | 88° |
| 2026-05-07 18:09 | 45.48934 | 6.85053 | 12319 ft | 162 kts | 88° |
| 2026-05-07 18:09 | 45.49021 | 6.86637 | 12575 ft | 163 kts | 88° |
| 2026-05-07 18:09 | 45.49312 | 6.88188 | 12818 ft | 165 kts | 57° |
| 2026-05-07 18:09 | 45.50138 | 6.89305 | 13089 ft | 164 kts | 38° |
| 2026-05-07 18:10 | 45.51029 | 6.90332 | 13351 ft | 164 kts | 39° |
| 2026-05-07 18:10 | 45.51914 | 6.91360 | 13616 ft | 165 kts | 39° |
| 2026-05-07 18:10 | 45.52807 | 6.92402 | 13875 ft | 167 kts | 39° |
| 2026-05-07 18:10 | 45.53758 | 6.93346 | 14114 ft | 168 kts | 25° |
| 2026-05-07 18:11 | 45.54788 | 6.94155 | 14351 ft | 171 kts | 33° |
| 2026-05-07 18:11 | 45.55363 | 6.94912 | 14510 ft | 170 kts | 49° |
| 2026-05-07 18:11 | 45.56284 | 6.96698 | 14833 ft | 169 kts | 55° |
| 2026-05-07 18:11 | 45.56953 | 6.98084 | 15008 ft | 174 kts | 55° |
| 2026-05-07 18:12 | 45.57675 | 6.99558 | 15007 ft | 188 kts | 54° |
| 2026-05-07 18:12 | 45.58442 | 7.01108 | 15013 ft | 195 kts | 54° |
| 2026-05-07 18:12 | 45.59241 | 7.02721 | 15007 ft | 201 kts | 54° |
| 2026-05-07 18:12 | 45.60049 | 7.04354 | 15009 ft | 203 kts | 54° |
| 2026-05-07 18:13 | 45.60869 | 7.06014 | 15005 ft | 206 kts | 54° |
| 2026-05-07 18:13 | 45.61696 | 7.07691 | 15007 ft | 207 kts | 54° |
| 2026-05-07 18:13 | 45.62532 | 7.09378 | 15005 ft | 209 kts | 54° |
| 2026-05-07 18:13 | 45.63358 | 7.11060 | 14996 ft | 210 kts | 54° |
| 2026-05-07 18:14 | 45.64201 | 7.12770 | 14991 ft | 211 kts | 54° |
| 2026-05-07 18:14 | 45.65036 | 7.14465 | 14983 ft | 206 kts | 54° |
| 2026-05-07 18:14 | 45.65865 | 7.16144 | 14982 ft | 207 kts | 54° |
| 2026-05-07 18:14 | 45.66694 | 7.17830 | 14981 ft | 208 kts | 54° |
| 2026-05-07 18:15 | 45.67525 | 7.19523 | 14978 ft | 208 kts | 54° |
| 2026-05-07 18:15 | 45.68353 | 7.21208 | 14973 ft | 207 kts | 53° |
| 2026-05-07 18:15 | 45.69168 | 7.22871 | 14976 ft | 203 kts | 53° |
| 2026-05-07 18:15 | 45.69986 | 7.24530 | 14974 ft | 205 kts | 54° |
| 2026-05-07 18:16 | 45.70797 | 7.26184 | 14976 ft | 206 kts | 53° |
| 2026-05-07 18:16 | 45.71624 | 7.27869 | 14975 ft | 207 kts | 53° |
| 2026-05-07 18:16 | 45.72452 | 7.29563 | 14973 ft | 208 kts | 54° |
| 2026-05-07 18:16 | 45.73282 | 7.31257 | 14974 ft | 208 kts | 53° |
| 2026-05-07 18:17 | 45.74305 | 7.32685 | 14970 ft | 205 kts | 31° |
| 2026-05-07 18:17 | 45.75598 | 7.33493 | 14967 ft | 202 kts | 9° |
| 2026-05-07 18:17 | 45.76977 | 7.33612 | 14968 ft | 198 kts | 352° |
| 2026-05-07 18:17 | 45.78353 | 7.33475 | 14968 ft | 199 kts | 352° |
| 2026-05-07 18:18 | 45.79734 | 7.33329 | 14971 ft | 200 kts | 352° |
| 2026-05-07 18:18 | 45.81103 | 7.33182 | 14972 ft | 200 kts | 351° |
| 2026-05-07 18:18 | 45.82489 | 7.33034 | 14970 ft | 200 kts | 352° |
| 2026-05-07 18:18 | 45.83875 | 7.32887 | 14976 ft | 200 kts | 351° |
| 2026-05-07 18:19 | 45.85265 | 7.32763 | 14977 ft | 201 kts | 351° |
| 2026-05-07 18:19 | 45.86663 | 7.32593 | 14985 ft | 202 kts | 351° |
| 2026-05-07 18:19 | 45.88046 | 7.32442 | 15125 ft | 195 kts | 351° |
| 2026-05-07 18:19 | 45.89364 | 7.32304 | 15317 ft | 185 kts | 351° |
| 2026-05-07 18:20 | 45.90636 | 7.32172 | 15523 ft | 182 kts | 351° |
| 2026-05-07 18:20 | 45.91881 | 7.32039 | 15710 ft | 175 kts | 351° |
| 2026-05-07 18:20 | 45.93071 | 7.31910 | 15924 ft | 170 kts | 349° |
| 2026-05-07 18:20 | 45.94229 | 7.31787 | 16109 ft | 167 kts | 350° |
| 2026-05-07 18:21 | 45.95359 | 7.31670 | 16322 ft | 160 kts | 350° |
| 2026-05-07 18:21 | 45.96458 | 7.31555 | 16544 ft | 158 kts | 349° |
| 2026-05-07 18:21 | 45.97572 | 7.31432 | 16759 ft | 163 kts | 350° |
| 2026-05-07 18:21 | 45.98730 | 7.31308 | 16972 ft | 169 kts | 350° |
| 2026-05-07 18:22 | 45.99945 | 7.31185 | 17002 ft | 181 kts | 350° |
| 2026-05-07 18:22 | 46.00787 | 7.31097 | 17006 ft | 186 kts | 350° |
| 2026-05-07 18:22 | 46.02551 | 7.30896 | 17014 ft | 194 kts | 351° |
| 2026-05-07 18:22 | 46.03907 | 7.30757 | 17005 ft | 195 kts | 350° |
| 2026-05-07 18:23 | 46.05246 | 7.30617 | 16998 ft | 195 kts | 350° |
| 2026-05-07 18:23 | 46.06591 | 7.30475 | 17005 ft | 193 kts | 350° |
| 2026-05-07 18:23 | 46.07937 | 7.30335 | 17011 ft | 195 kts | 351° |
| 2026-05-07 18:23 | 46.09294 | 7.30188 | 17006 ft | 196 kts | 350° |
| 2026-05-07 18:24 | 46.10653 | 7.30044 | 17005 ft | 196 kts | 351° |
| 2026-05-07 18:24 | 46.12009 | 7.29898 | 16994 ft | 194 kts | 351° |
| 2026-05-07 18:24 | 46.13355 | 7.29752 | 16997 ft | 194 kts | 350° |
| 2026-05-07 18:24 | 46.14701 | 7.29607 | 17000 ft | 194 kts | 351° |
| 2026-05-07 18:25 | 46.16029 | 7.29466 | 17000 ft | 194 kts | 350° |